Station Historical Data
Daily Summary for December 14, 2017 Units:  English    Metric   Both
« Previous Day
Next Day »
Daily Weekly Monthly Yearly Custom
  High: Low: Average:
Temperature: 18.9 °F 12.3 °F 16.1 °F
Dew Point: 13.4 °F 6.0 °F 9.5 °F
Humidity: 86% 57% 75%
Wind Speed: 11.0mph 0.0mph 3.4mph
Wind Gust: 14.0mph - -
Wind- - WSW
Pressure: 30.08 in 29.58 in -
Precipitation: 0.00 in    
Historical Graphs
 
 
Tabular Data for December 14, 2017
Time Temperature Dew Point Pressure Wind Wind Speed Wind Gust Humidity Rainfall Rate (Hourly)
00:04 17.1 °F 13.4 °F 29.58 in NE 3.0 mph 7.0 mph 85% 0.00 in
00:09 17.0 °F 13.3 °F 29.58 in ENE 4.0 mph 8.0 mph 85% 0.00 in
00:14 17.0 °F 13.3 °F 29.58 in NE 3.0 mph 7.0 mph 85% 0.00 in
00:19 16.9 °F 13.2 °F 29.58 in NE 4.0 mph 8.0 mph 85% 0.00 in
00:24 16.9 °F 13.2 °F 29.58 in NE 2.0 mph 8.0 mph 85% 0.00 in
00:29 16.8 °F 13.1 °F 29.58 in ENE 3.0 mph 6.0 mph 85% 0.00 in
00:39 16.7 °F 13.0 °F 29.58 in NE 3.0 mph 6.0 mph 85% 0.00 in
00:44 16.8 °F 13.1 °F 29.58 in NE 2.0 mph 6.0 mph 85% 0.00 in
00:49 16.8 °F 13.1 °F 29.58 in ENE 1.0 mph 7.0 mph 85% 0.00 in
00:54 16.7 °F 13.0 °F 29.59 in ENE 2.0 mph 7.0 mph 85% 0.00 in
00:59 16.8 °F 13.1 °F 29.59 in NE 3.0 mph 7.0 mph 85% 0.00 in
01:04 16.7 °F 13.0 °F 29.59 in ENE 3.0 mph 8.0 mph 85% 0.00 in
01:14 16.7 °F 13.0 °F 29.59 in NE 4.0 mph 8.0 mph 85% 0.00 in
01:24 16.7 °F 13.0 °F 29.59 in NE 4.0 mph 8.0 mph 85% 0.00 in
01:29 16.7 °F 13.0 °F 29.59 in NE 4.0 mph 6.0 mph 85% 0.00 in
01:34 16.7 °F 13.0 °F 29.58 in NE 3.0 mph 6.0 mph 85% 0.00 in
01:44 16.6 °F 12.9 °F 29.59 in NE 2.0 mph 7.0 mph 85% 0.00 in
01:54 16.6 °F 12.9 °F 29.59 in NE 3.0 mph 8.0 mph 85% 0.00 in
01:59 16.6 °F 12.9 °F 29.59 in North 4.0 mph 7.0 mph 85% 0.00 in
02:04 16.6 °F 12.9 °F 29.60 in NNE 3.0 mph 7.0 mph 85% 0.00 in
02:09 16.6 °F 12.9 °F 29.60 in NNE 3.0 mph 7.0 mph 85% 0.00 in
02:14 16.6 °F 12.9 °F 29.60 in NE 4.0 mph 5.0 mph 85% 0.00 in
02:24 16.6 °F 12.9 °F 29.61 in NE 3.0 mph 8.0 mph 85% 0.00 in
02:39 16.4 °F 12.7 °F 29.61 in NNE 3.0 mph 7.0 mph 85% 0.00 in
02:54 16.3 °F 12.6 °F 29.62 in NNE 2.0 mph 5.0 mph 85% 0.00 in
02:59 16.3 °F 12.6 °F 29.62 in NE 3.0 mph 5.0 mph 85% 0.00 in
03:04 16.2 °F 12.5 °F 29.63 in NE 2.0 mph 5.0 mph 85% 0.00 in
03:14 16.1 °F 12.4 °F 29.63 in NNE 3.0 mph 8.0 mph 85% 0.00 in
03:19 16.1 °F 12.4 °F 29.63 in NNE 2.0 mph 4.0 mph 85% 0.00 in
03:24 15.9 °F 12.2 °F 29.63 in NE 3.0 mph 5.0 mph 85% 0.00 in
03:29 15.9 °F 12.2 °F 29.64 in NNE 2.0 mph 5.0 mph 85% 0.00 in
03:39 15.6 °F 11.9 °F 29.65 in NNE 2.0 mph 4.0 mph 85% 0.00 in
03:49 15.5 °F 11.8 °F 29.65 in NNE 2.0 mph 4.0 mph 85% 0.00 in
03:54 15.5 °F 11.8 °F 29.65 in NNE 2.0 mph 3.0 mph 85% 0.00 in
03:59 15.5 °F 11.8 °F 29.65 in NNW 4.0 mph 4.0 mph 85% 0.00 in
04:04 15.5 °F 11.8 °F 29.66 in North 2.0 mph 4.0 mph 85% 0.00 in
04:09 15.4 °F 12.0 °F 29.66 in North 2.0 mph 5.0 mph 86% 0.00 in
04:14 15.6 °F 12.2 °F 29.67 in NNW 4.0 mph 5.0 mph 86% 0.00 in
04:19 15.7 °F 12.3 °F 29.67 in North 1.0 mph 5.0 mph 86% 0.00 in
04:24 15.9 °F 12.5 °F 29.67 in North 1.0 mph 4.0 mph 86% 0.00 in
04:29 15.9 °F 12.5 °F 29.67 in NNW 5.0 mph 5.0 mph 86% 0.00 in
04:34 16.0 °F 12.6 °F 29.67 in North 3.0 mph 5.0 mph 86% 0.00 in
04:39 16.1 °F 12.7 °F 29.67 in NNE 3.0 mph 5.0 mph 86% 0.00 in
04:44 16.1 °F 12.7 °F 29.68 in NNE 2.0 mph 5.0 mph 86% 0.00 in
04:49 16.1 °F 12.7 °F 29.68 in North 2.0 mph 5.0 mph 86% 0.00 in
04:54 16.2 °F 12.7 °F 29.68 in NNW 2.0 mph 5.0 mph 86% 0.00 in
04:59 16.1 °F 12.7 °F 29.69 in Calm   3.0 mph 86% 0.00 in
05:04 16.2 °F 12.7 °F 29.69 in NNW 3.0 mph 4.0 mph 86% 0.00 in
05:09 16.2 °F 12.7 °F 29.70 in NNW 1.0 mph 4.0 mph 86% 0.00 in
05:14 16.2 °F 12.7 °F 29.70 in NNW 2.0 mph 5.0 mph 86% 0.00 in
05:19 16.3 °F 12.8 °F 29.71 in NNW 3.0 mph 5.0 mph 86% 0.00 in
05:24 16.4 °F 12.9 °F 29.72 in NNW 6.0 mph 8.0 mph 86% 0.00 in
05:29 16.4 °F 12.9 °F 29.72 in NNW 3.0 mph 8.0 mph 86% 0.00 in
05:34 16.4 °F 12.9 °F 29.72 in North 2.0 mph 7.0 mph 86% 0.00 in
05:39 16.4 °F 12.9 °F 29.73 in NNW 3.0 mph 10.0 mph 86% 0.00 in
05:44 16.4 °F 12.9 °F 29.73 in North 3.0 mph 10.0 mph 86% 0.00 in
05:49 16.4 °F 12.9 °F 29.74 in North 3.0 mph 10.0 mph 86% 0.00 in
05:50 16.4 °F 12.9 °F 29.74 in North 3.0 mph 10.0 mph 86% 0.00 in
05:59 16.3 °F 12.6 °F 29.74 in NNW 4.0 mph 8.0 mph 85% 0.00 in
06:04 16.2 °F 12.5 °F 29.75 in NNW 3.0 mph 8.0 mph 85% 0.00 in
06:09 15.9 °F 12.2 °F 29.76 in NNW 4.0 mph 12.0 mph 85% 0.00 in
06:14 15.5 °F 11.5 °F 29.76 in NNW 3.0 mph 10.0 mph 84% 0.00 in
06:19 15.0 °F 11.0 °F 29.76 in NNW 6.0 mph 12.0 mph 84% 0.00 in
06:24 14.8 °F 10.6 °F 29.77 in NNW 5.0 mph 12.0 mph 83% 0.00 in
06:29 14.7 °F 10.5 °F 29.77 in NNE 6.0 mph 11.0 mph 83% 0.00 in
06:34 14.6 °F 10.4 °F 29.78 in NNW 6.0 mph 7.0 mph 83% 0.00 in
06:39 14.4 °F 10.2 °F 29.78 in North 9.0 mph 9.0 mph 83% 0.00 in
06:44 14.3 °F 10.1 °F 29.79 in NNW 4.0 mph 9.0 mph 83% 0.00 in
06:49 14.1 °F 9.6 °F 29.79 in NNW 5.0 mph 9.0 mph 82% 0.00 in
06:54 14.0 °F 9.5 °F 29.80 in NNW 4.0 mph 8.0 mph 82% 0.00 in
06:55 14.0 °F 9.5 °F 29.80 in NNW 4.0 mph 8.0 mph 82% 0.00 in
07:04 13.7 °F 9.2 °F 29.81 in NNW 4.0 mph 8.0 mph 82% 0.00 in
07:09 13.5 °F 9.0 °F 29.81 in NNW 4.0 mph 8.0 mph 82% 0.00 in
07:14 13.3 °F 8.8 °F 29.81 in NNW 3.0 mph 11.0 mph 82% 0.00 in
07:19 13.4 °F 8.9 °F 29.82 in NNW 4.0 mph 8.0 mph 82% 0.00 in
07:24 13.4 °F 8.9 °F 29.82 in NNW 4.0 mph 7.0 mph 82% 0.00 in
07:29 13.4 °F 8.9 °F 29.82 in NNW 3.0 mph 8.0 mph 82% 0.00 in
07:34 13.4 °F 8.7 °F 29.83 in NNW 2.0 mph 7.0 mph 81% 0.00 in
07:39 13.4 °F 8.7 °F 29.83 in NW 3.0 mph 5.0 mph 81% 0.00 in
07:44 13.2 °F 8.5 °F 29.83 in NW 5.0 mph 6.0 mph 81% 0.00 in
07:49 13.1 °F 8.4 °F 29.84 in NNW 2.0 mph 9.0 mph 81% 0.00 in
07:54 13.0 °F 8.0 °F 29.84 in North 2.0 mph 6.0 mph 80% 0.00 in
07:59 13.1 °F 8.1 °F 29.85 in NW 3.0 mph 6.0 mph 80% 0.00 in
08:04 13.4 °F 8.4 °F 29.85 in NW 3.0 mph 7.0 mph 80% 0.00 in
08:09 13.5 °F 8.5 °F 29.86 in NNW 3.0 mph 10.0 mph 80% 0.00 in
08:14 13.6 °F 8.3 °F 29.86 in NNW 5.0 mph 10.0 mph 79% 0.00 in
08:19 13.8 °F 8.2 °F 29.86 in NNW 4.0 mph 10.0 mph 78% 0.00 in
08:24 13.9 °F 8.3 °F 29.87 in NNW 3.0 mph 9.0 mph 78% 0.00 in
08:29 13.9 °F 8.0 °F 29.88 in NW 4.0 mph 8.0 mph 77% 0.00 in
08:34 13.8 °F 7.6 °F 29.88 in NNW 5.0 mph 11.0 mph 76% 0.00 in
08:39 13.5 °F 7.0 °F 29.89 in NW 2.0 mph 10.0 mph 75% 0.00 in
08:44 13.3 °F 6.9 °F 29.89 in NNE 1.0 mph 10.0 mph 75% 0.00 in
08:49 13.5 °F 7.0 °F 29.90 in North 3.0 mph 6.0 mph 75% 0.00 in
08:54 13.9 °F 7.4 °F 29.90 in NNW 1.0 mph 6.0 mph 75% 0.00 in
08:59 14.1 °F 7.6 °F 29.90 in NW 3.0 mph 8.0 mph 75% 0.00 in
09:04 14.3 °F 7.8 °F 29.91 in NNW 4.0 mph 8.0 mph 75% 0.00 in
09:09 14.6 °F 8.1 °F 29.90 in NW 3.0 mph 8.0 mph 75% 0.00 in
09:14 14.9 °F 8.4 °F 29.90 in NW 3.0 mph 7.0 mph 75% 0.00 in
09:19 15.2 °F 8.7 °F 29.91 in NW 4.0 mph 7.0 mph 75% 0.00 in
09:20 15.2 °F 8.7 °F 29.91 in WNW 2.0 mph 7.0 mph 75% 0.00 in
09:24 15.4 °F 8.9 °F 29.91 in NW 5.0 mph 6.0 mph 75% 0.00 in
09:29 15.5 °F 9.0 °F 29.92 in NW 4.0 mph 7.0 mph 75% 0.00 in
09:34 15.5 °F 9.0 °F 29.92 in NW 4.0 mph 6.0 mph 75% 0.00 in
09:39 15.3 °F 8.8 °F 29.92 in NW 11.0 mph 13.0 mph 75% 0.00 in
09:44 15.3 °F 8.8 °F 29.92 in NW 6.0 mph 13.0 mph 75% 0.00 in
09:49 15.5 °F 8.7 °F 29.93 in NW 6.0 mph 11.0 mph 74% 0.00 in
09:54 15.5 °F 8.7 °F 29.94 in NW 6.0 mph 12.0 mph 74% 0.00 in
09:59 15.7 °F 8.9 °F 29.94 in NW 6.0 mph 12.0 mph 74% 0.00 in
10:04 15.9 °F 9.1 °F 29.94 in NW 4.0 mph 10.0 mph 74% 0.00 in
10:05 15.9 °F 9.1 °F 29.94 in North 8.0 mph 9.0 mph 74% 0.00 in
10:14 16.4 °F 8.9 °F 29.95 in NNW 6.0 mph 9.0 mph 72% 0.00 in
10:19 16.2 °F 8.1 °F 29.95 in NW 4.0 mph 9.0 mph 70% 0.00 in
10:24 16.2 °F 8.1 °F 29.96 in WNW 1.0 mph 7.0 mph 70% 0.00 in
10:29 16.6 °F 8.2 °F 29.96 in WNW 7.0 mph 8.0 mph 69% 0.00 in
10:34 16.9 °F 8.2 °F 29.96 in NW 6.0 mph 8.0 mph 68% 0.00 in
10:39 17.3 °F 8.5 °F 29.96 in WNW 7.0 mph 11.0 mph 68% 0.00 in
10:44 17.3 °F 8.9 °F 29.96 in NW 3.0 mph 12.0 mph 69% 0.00 in
10:49 17.7 °F 9.2 °F 29.97 in WNW 5.0 mph 12.0 mph 69% 0.00 in
10:54 17.7 °F 9.2 °F 29.97 in WNW 5.0 mph 10.0 mph 69% 0.00 in
10:59 17.6 °F 9.5 °F 29.97 in WNW 5.0 mph 10.0 mph 70% 0.00 in
11:04 17.1 °F 9.3 °F 29.97 in WNW 4.0 mph 8.0 mph 71% 0.00 in
11:09 17.4 °F 9.9 °F 29.97 in WNW 4.0 mph 7.0 mph 72% 0.00 in
11:10 17.4 °F 9.9 °F 29.97 in NW 4.0 mph 6.0 mph 72% 0.00 in
11:19 17.5 °F 10.3 °F 29.97 in West 4.0 mph 7.0 mph 73% 0.00 in
11:24 17.2 °F 10.9 °F 29.98 in West 1.0 mph 7.0 mph 76% 0.00 in
11:29 17.3 °F 11.3 °F 29.98 in West 3.0 mph 8.0 mph 77% 0.00 in
11:34 17.6 °F 11.0 °F 29.98 in WNW 4.0 mph 8.0 mph 75% 0.00 in
11:39 17.3 °F 9.8 °F 29.98 in West 6.0 mph 8.0 mph 72% 0.00 in
11:44 17.1 °F 8.7 °F 29.98 in West 6.0 mph 9.0 mph 69% 0.00 in
11:49 16.2 °F 7.8 °F 29.98 in West 4.0 mph 8.0 mph 69% 0.00 in
11:54 16.4 °F 8.3 °F 29.98 in WNW 3.0 mph 8.0 mph 70% 0.00 in
11:59 16.9 °F 8.5 °F 29.99 in West 5.0 mph 10.0 mph 69% 0.00 in
12:04 16.9 °F 8.5 °F 29.99 in West 5.0 mph 10.0 mph 69% 0.00 in
12:09 17.3 °F 8.5 °F 29.99 in West 6.0 mph 11.0 mph 68% 0.00 in
12:14 18.0 °F 8.9 °F 29.99 in West 6.0 mph 11.0 mph 67% 0.00 in
12:19 17.9 °F 8.5 °F 29.98 in West 5.0 mph 10.0 mph 66% 0.00 in
12:24 18.2 °F 9.1 °F 29.99 in West 6.0 mph 11.0 mph 67% 0.00 in
12:29 18.0 °F 8.9 °F 29.99 in West 2.0 mph 7.0 mph 67% 0.00 in
12:34 18.1 °F 8.3 °F 29.99 in West 4.0 mph 9.0 mph 65% 0.00 in
12:39 18.3 °F 8.5 °F 29.99 in WNW 5.0 mph 10.0 mph 65% 0.00 in
12:44 18.6 °F 8.4 °F 29.99 in West 5.0 mph 10.0 mph 64% 0.00 in
12:49 18.5 °F 8.3 °F 29.99 in WSW 5.0 mph 11.0 mph 64% 0.00 in
12:54 18.4 °F 8.2 °F 29.99 in WSW 5.0 mph 11.0 mph 64% 0.00 in
12:59 18.3 °F 7.8 °F 29.99 in West 5.0 mph 10.0 mph 63% 0.00 in
13:04 18.2 °F 8.1 °F 29.99 in West 6.0 mph 10.0 mph 64% 0.00 in
13:09 18.1 °F 7.6 °F 29.99 in West 6.0 mph 11.0 mph 63% 0.00 in
13:14 18.3 °F 7.8 °F 29.99 in SW 9.0 mph 11.0 mph 63% 0.00 in
13:19 18.2 °F 7.7 °F 29.99 in WNW 7.0 mph 12.0 mph 63% 0.00 in
13:24 18.3 °F 7.8 °F 29.99 in WSW 4.0 mph 10.0 mph 63% 0.00 in
13:29 18.5 °F 8.0 °F 29.99 in West 5.0 mph 10.0 mph 63% 0.00 in
13:34 18.6 °F 7.7 °F 29.99 in West 3.0 mph 9.0 mph 62% 0.00 in
13:39 18.7 °F 7.5 °F 30.00 in WNW 4.0 mph 9.0 mph 61% 0.00 in
13:44 18.6 °F 6.3 °F 30.00 in WNW 4.0 mph 10.0 mph 58% 0.00 in
13:49 18.4 °F 6.8 °F 30.00 in WNW 5.0 mph 10.0 mph 60% 0.00 in
13:54 18.9 °F 7.3 °F 30.00 in WNW 5.0 mph 9.0 mph 60% 0.00 in
13:59 18.7 °F 6.7 °F 30.00 in NW 6.0 mph 11.0 mph 59% 0.00 in
14:04 18.7 °F 6.7 °F 30.00 in SW 3.0 mph 9.0 mph 59% 0.00 in
14:09 18.7 °F 6.4 °F 30.00 in WNW 7.0 mph 11.0 mph 58% 0.00 in
14:14 18.7 °F 6.4 °F 30.00 in West 7.0 mph 13.0 mph 58% 0.00 in
14:19 18.7 °F 6.0 °F 30.00 in West 7.0 mph 13.0 mph 57% 0.00 in
14:24 18.7 °F 6.4 °F 30.00 in West 6.0 mph 11.0 mph 58% 0.00 in
14:29 18.7 °F 6.7 °F 30.00 in West 6.0 mph 12.0 mph 59% 0.00 in
14:34 18.7 °F 7.1 °F 30.00 in West 7.0 mph 12.0 mph 60% 0.00 in
14:39 18.8 °F 7.6 °F 30.00 in West 6.0 mph 11.0 mph 61% 0.01 in
14:44 18.9 °F 7.7 °F 30.00 in West 6.0 mph 12.0 mph 61% 0.01 in
14:50 18.9 °F 7.7 °F 30.01 in West 1.0 mph 12.0 mph 61% 0.01 in
14:59 18.7 °F 7.8 °F 30.01 in West 7.0 mph 11.0 mph 62% 0.01 in
15:04 18.4 °F 7.9 °F 30.01 in WNW 7.0 mph 12.0 mph 63% 0.01 in
15:09 18.4 °F 8.2 °F 30.01 in WSW 5.0 mph 11.0 mph 64% 0.01 in
15:14 18.5 °F 8.3 °F 30.01 in WSW 5.0 mph 14.0 mph 64% 0.01 in
15:15 18.5 °F 8.3 °F 30.01 in West 6.0 mph 14.0 mph 64% 0.01 in
15:24 18.1 °F 8.0 °F 30.01 in West 6.0 mph 14.0 mph 64% 0.01 in
15:29 18.2 °F 8.1 °F 30.01 in West 4.0 mph 9.0 mph 64% 0.01 in
15:34 18.3 °F 8.1 °F 30.01 in WNW 5.0 mph 6.0 mph 64% 0.01 in
15:39 18.2 °F 8.1 °F 30.01 in WSW 3.0 mph 7.0 mph 64% 0.00 in
15:44 18.3 °F 8.1 °F 30.01 in SSW 5.0 mph 9.0 mph 64% 0.00 in
15:49 18.2 °F 8.1 °F 30.01 in WNW 5.0 mph 7.0 mph 64% 0.00 in
15:54 18.1 °F 8.0 °F 30.01 in WSW 5.0 mph 11.0 mph 64% 0.00 in
15:59 17.9 °F 7.8 °F 30.01 in West 5.0 mph 9.0 mph 64% 0.00 in
16:04 17.5 °F 7.7 °F 30.01 in West 9.0 mph 11.0 mph 65% 0.00 in
16:09 17.4 °F 7.6 °F 30.01 in West 6.0 mph 12.0 mph 65% 0.00 in
16:10 17.4 °F 7.6 °F 30.01 in WSW 4.0 mph 12.0 mph 65% 0.00 in
16:19 17.0 °F 7.6 °F 30.01 in WSW 1.0 mph 8.0 mph 66% 0.00 in
16:24 16.8 °F 7.4 °F 30.01 in West 4.0 mph 9.0 mph 66% 0.00 in
16:29 16.6 °F 7.5 °F 30.01 in West 4.0 mph 9.0 mph 67% 0.00 in
16:34 16.7 °F 7.6 °F 30.02 in WSW 4.0 mph 10.0 mph 67% 0.00 in
16:39 16.6 °F 7.5 °F 30.02 in WSW 5.0 mph 10.0 mph 67% 0.00 in
16:44 16.5 °F 7.4 °F 30.02 in SW 1.0 mph 6.0 mph 67% 0.00 in
16:49 16.2 °F 7.2 °F 30.02 in WSW 2.0 mph 5.0 mph 67% 0.00 in
16:54 16.1 °F 7.4 °F 30.02 in WSW 2.0 mph 3.0 mph 68% 0.00 in
16:59 15.9 °F 7.2 °F 30.03 in WSW 2.0 mph 4.0 mph 68% 0.00 in
17:04 15.9 °F 7.5 °F 30.03 in WSW 2.0 mph 5.0 mph 69% 0.00 in
17:09 15.9 °F 7.5 °F 30.03 in West 3.0 mph 6.0 mph 69% 0.00 in
17:14 15.9 °F 7.5 °F 30.03 in West 2.0 mph 6.0 mph 69% 0.00 in
17:19 15.9 °F 7.5 °F 30.03 in WSW 3.0 mph 6.0 mph 69% 0.00 in
17:24 16.1 °F 7.7 °F 30.04 in WSW 2.0 mph 7.0 mph 69% 0.00 in
17:29 16.0 °F 7.6 °F 30.04 in West 4.0 mph 8.0 mph 69% 0.00 in
17:34 16.1 °F 7.7 °F 30.04 in WSW 3.0 mph 4.0 mph 69% 0.00 in
17:39 16.0 °F 7.9 °F 30.04 in West 3.0 mph 6.0 mph 70% 0.00 in
17:44 15.9 °F 7.8 °F 30.04 in West 3.0 mph 6.0 mph 70% 0.00 in
17:49 15.8 °F 7.7 °F 30.04 in West 3.0 mph 7.0 mph 70% 0.00 in
17:54 15.8 °F 7.7 °F 30.04 in West 2.0 mph 7.0 mph 70% 0.00 in
17:59 15.9 °F 8.2 °F 30.05 in West 3.0 mph 5.0 mph 71% 0.00 in
18:04 16.1 °F 8.3 °F 30.05 in WSW 2.0 mph 7.0 mph 71% 0.00 in
18:09 16.2 °F 8.4 °F 30.05 in West 4.0 mph 9.0 mph 71% 0.00 in
18:14 16.2 °F 8.4 °F 30.05 in West 4.0 mph 9.0 mph 71% 0.00 in
18:19 16.1 °F 8.3 °F 30.05 in West 3.0 mph 7.0 mph 71% 0.00 in
18:24 16.1 °F 8.3 °F 30.06 in West 3.0 mph 5.0 mph 71% 0.00 in
18:29 16.0 °F 8.3 °F 30.06 in West 3.0 mph 5.0 mph 71% 0.00 in
18:34 16.1 °F 8.7 °F 30.06 in WNW 2.0 mph 6.0 mph 72% 0.00 in
18:39 16.1 °F 8.7 °F 30.06 in West 3.0 mph 6.0 mph 72% 0.00 in
18:44 16.1 °F 8.7 °F 30.06 in West 2.0 mph 4.0 mph 72% 0.00 in
18:49 15.9 °F 8.5 °F 30.06 in West 3.0 mph 4.0 mph 72% 0.00 in
18:54 15.9 °F 8.5 °F 30.07 in West 1.0 mph 4.0 mph 72% 0.00 in
18:59 15.8 °F 8.7 °F 30.07 in WSW 4.0 mph 6.0 mph 73% 0.00 in
19:04 16.1 °F 9.0 °F 30.07 in West 1.0 mph 5.0 mph 73% 0.00 in
19:09 16.1 °F 9.0 °F 30.07 in WSW 1.0 mph 4.0 mph 73% 0.00 in
19:14 16.1 °F 9.0 °F 30.07 in West 3.0 mph 8.0 mph 73% 0.00 in
19:19 16.4 °F 9.3 °F 30.07 in WSW 3.0 mph 8.0 mph 73% 0.00 in
19:24 16.4 °F 9.3 °F 30.07 in WSW 3.0 mph 6.0 mph 73% 0.00 in
19:29 16.2 °F 9.1 °F 30.07 in WNW 2.0 mph 5.0 mph 73% 0.00 in
19:34 16.2 °F 9.1 °F 30.07 in West 2.0 mph 6.0 mph 73% 0.00 in
19:39 16.0 °F 9.2 °F 30.07 in West 7.0 mph 7.0 mph 74% 0.00 in
19:44 16.2 °F 9.4 °F 30.07 in West 4.0 mph 8.0 mph 74% 0.00 in
19:49 16.4 °F 9.9 °F 30.07 in West 3.0 mph 8.0 mph 75% 0.00 in
19:54 16.5 °F 10.0 °F 30.07 in WSW 3.0 mph 5.0 mph 75% 0.00 in
19:59 16.5 °F 10.0 °F 30.08 in WSW 3.0 mph 5.0 mph 75% 0.00 in
20:04 16.5 °F 10.0 °F 30.08 in WSW 3.0 mph 5.0 mph 75% 0.00 in
20:09 16.4 °F 10.2 °F 30.08 in WSW 3.0 mph 6.0 mph 76% 0.00 in
20:14 16.4 °F 10.4 °F 30.08 in WSW 3.0 mph 6.0 mph 77% 0.00 in
20:19 16.3 °F 10.4 °F 30.08 in SW 3.0 mph 5.0 mph 77% 0.00 in
20:29 16.4 °F 10.7 °F 30.08 in SW 3.0 mph 6.0 mph 78% 0.00 in
20:34 16.5 °F 11.1 °F 30.08 in West 5.0 mph 5.0 mph 79% 0.00 in
20:39 16.6 °F 11.2 °F 30.08 in West 3.0 mph 6.0 mph 79% 0.00 in
20:44 16.7 °F 11.3 °F 30.08 in West 3.0 mph 6.0 mph 79% 0.00 in
20:49 16.6 °F 11.2 °F 30.08 in West 3.0 mph 6.0 mph 79% 0.00 in
20:54 16.5 °F 10.8 °F 30.08 in West 2.0 mph 6.0 mph 78% 0.00 in
20:59 16.4 °F 10.7 °F 30.08 in West 2.0 mph 6.0 mph 78% 0.00 in
21:04 16.3 °F 10.6 °F 30.08 in West 3.0 mph 7.0 mph 78% 0.00 in
21:09 16.2 °F 10.5 °F 30.08 in West 3.0 mph 7.0 mph 78% 0.00 in
21:14 16.2 °F 10.3 °F 30.08 in West 3.0 mph 6.0 mph 77% 0.00 in
21:19 16.1 °F 10.2 °F 30.08 in WNW 3.0 mph 5.0 mph 77% 0.00 in
21:24 16.1 °F 9.9 °F 30.08 in WNW 1.0 mph 6.0 mph 76% 0.00 in
21:29 15.9 °F 9.7 °F 30.07 in WNW 3.0 mph 6.0 mph 76% 0.00 in
21:34 15.9 °F 9.7 °F 30.08 in WNW 3.0 mph 5.0 mph 76% 0.00 in
21:39 15.8 °F 9.6 °F 30.08 in West 2.0 mph 5.0 mph 76% 0.00 in
21:44 15.7 °F 9.5 °F 30.07 in WNW 2.0 mph 6.0 mph 76% 0.00 in
21:49 15.7 °F 9.5 °F 30.08 in WNW 4.0 mph 5.0 mph 76% 0.00 in
21:54 15.6 °F 9.4 °F 30.08 in West 1.0 mph 4.0 mph 76% 0.00 in
21:59 15.4 °F 9.2 °F 30.07 in WNW 3.0 mph 4.0 mph 76% 0.00 in
22:04 15.3 °F 9.1 °F 30.08 in WNW 2.0 mph 4.0 mph 76% 0.00 in
22:09 15.2 °F 9.0 °F 30.08 in WNW 2.0 mph 4.0 mph 76% 0.00 in
22:14 15.2 °F 9.0 °F 30.08 in West 2.0 mph 4.0 mph 76% 0.00 in
22:19 15.0 °F 8.8 °F 30.08 in Calm   3.0 mph 76% 0.00 in
22:24 14.8 °F 8.6 °F 30.08 in Calm   2.0 mph 76% 0.00 in
22:29 14.6 °F 8.7 °F 30.08 in Calm   2.0 mph 77% 0.00 in
22:34 14.5 °F 8.6 °F 30.08 in Calm   2.0 mph 77% 0.00 in
22:39 14.1 °F 8.2 °F 30.07 in Calm   2.0 mph 77% 0.00 in
22:44 13.9 °F 8.3 °F 30.07 in Calm   1.0 mph 78% 0.00 in
22:49 13.8 °F 8.2 °F 30.07 in Calm     78% 0.00 in
22:54 13.5 °F 8.2 °F 30.07 in Calm     79% 0.00 in
22:59 13.0 °F 7.7 °F 30.07 in Calm     79% 0.00 in
23:04 13.2 °F 8.2 °F 30.07 in Calm     80% 0.00 in
23:09 13.2 °F 8.2 °F 30.06 in Calm     80% 0.00 in
23:14 13.1 °F 8.4 °F 30.07 in WNW 4.0 mph 4.0 mph 81% 0.00 in
23:19 13.4 °F 8.7 °F 30.07 in WNW 1.0 mph 4.0 mph 81% 0.00 in
23:24 13.5 °F 8.8 °F 30.06 in WNW 1.0 mph 3.0 mph 81% 0.00 in
23:29 13.7 °F 9.0 °F 30.06 in Calm   3.0 mph 81% 0.00 in
23:34 13.8 °F 9.0 °F 30.07 in Calm     81% 0.00 in
23:39 13.7 °F 8.7 °F 30.07 in Calm     80% 0.00 in
23:44 13.2 °F 8.2 °F 30.07 in Calm     80% 0.00 in
23:49 12.9 °F 7.9 °F 30.07 in Calm     80% 0.00 in
23:54 12.6 °F 7.6 °F 30.07 in Calm     80% 0.00 in
23:59 12.3 °F 7.6 °F 30.07 in Calm     81% 0.00 in
Buffalo, New York, USA
Compliments of Weather Underground - 2.25 mb